Time;durP1;ratioP1;P1;durP2;ratioP2;P2;SDS_P1;SDS_P2;PMS_P1;PMS_P2;Temp;Humidity;BMP_temperature;BMP_pressure;BME280_temperature;BME280_humidity;BME280_pressure;Samples;Min_cycle;Max_cycle;Signal;HPM_P1;HPM_P2
2023/08/30 00:03:58;;;;;;;89.60;24.02;;;;;;;;;;10180546;29;20561;-86
2023/08/30 00:08:59;;;;;;;52.83;16.98;;;;;;;;;;10193627;29;20036;-85
2023/08/30 00:14:05;;;;;;;73.00;19.05;;;;;;;;;;10169767;29;20063;-84
2023/08/30 00:19:06;;;;;;;49.13;14.95;;;;;;;;;;10190133;29;20624;-88
2023/08/30 00:24:07;;;;;;;46.50;15.05;;;;;;;;;;10181145;29;20024;-84
2023/08/30 00:29:08;;;;;;;44.25;13.38;;;;;;;;;;10172303;29;20028;-85
2023/08/30 00:34:09;;;;;;;31.10;11.75;;;;;;;;;;10190941;29;20048;-87
2023/08/30 00:39:10;;;;;;;27.23;10.30;;;;;;;;;;10184440;29;20038;-85
2023/08/30 00:44:11;;;;;;;37.28;11.88;;;;;;;;;;10188326;29;20024;-85
2023/08/30 00:49:12;;;;;;;25.60;8.88;;;;;;;;;;10193400;29;20036;-85
2023/08/30 00:54:15;;;;;;;25.90;9.00;;;;;;;;;;10169457;29;20064;-86
2023/08/30 00:59:16;;;;;;;26.15;8.27;;;;;;;;;;10154732;29;20032;-86
2023/08/30 01:04:18;;;;;;;33.28;9.48;;;;;;;;;;10180950;29;20040;-85
2023/08/30 01:09:20;;;;;;;27.55;9.85;;;;;;;;;;10191066;29;20039;-86
2023/08/30 01:14:34;;;;;;;25.52;8.68;;;;;;;;;;10200260;29;20036;-89
2023/08/30 01:19:43;;;;;;;22.67;8.38;;;;;;;;;;10193554;29;20044;-87
2023/08/30 01:24:54;;;;;;;33.50;10.00;;;;;;;;;;10161804;29;20127;-87
2023/08/30 01:29:57;;;;;;;29.17;9.57;;;;;;;;;;10182570;29;20401;-85
2023/08/30 01:34:58;;;;;;;28.38;9.20;;;;;;;;;;10190700;29;20530;-87
2023/08/30 01:39:59;;;;;;;26.17;9.20;;;;;;;;;;10196867;29;20063;-87
2023/08/30 01:45:01;;;;;;;22.27;8.18;;;;;;;;;;10175638;29;20416;-86
2023/08/30 01:50:03;;;;;;;28.58;9.60;;;;;;;;;;10179690;29;20036;-86
2023/08/30 01:55:05;;;;;;;18.75;8.00;;;;;;;;;;10191959;29;20059;-86
2023/08/30 02:00:06;;;;;;;20.98;7.97;;;;;;;;;;10174873;29;20500;-86
2023/08/30 02:05:09;;;;;;;17.52;7.70;;;;;;;;;;10173822;29;20062;-87
2023/08/30 02:10:12;;;;;;;16.75;7.13;;;;;;;;;;10190041;29;20032;-89
2023/08/30 02:15:14;;;;;;;26.17;8.68;;;;;;;;;;10153882;29;20102;-86
2023/08/30 02:20:15;;;;;;;14.00;6.15;;;;;;;;;;10166760;29;20126;-87
2023/08/30 02:25:16;;;;;;;19.50;7.65;;;;;;;;;;10189591;29;20028;-87
2023/08/30 02:30:17;;;;;;;15.55;7.38;;;;;;;;;;10174034;29;20050;-86
2023/08/30 02:35:18;;;;;;;19.27;7.70;;;;;;;;;;10179747;29;20067;-88
2023/08/30 02:40:19;;;;;;;26.35;9.98;;;;;;;;;;10192366;29;20476;-86
2023/08/30 02:45:20;;;;;;;25.38;9.20;;;;;;;;;;10184010;29;20027;-87
2023/08/30 02:50:21;;;;;;;25.88;9.68;;;;;;;;;;10180210;29;20042;-87
2023/08/30 02:55:22;;;;;;;22.10;8.52;;;;;;;;;;10168359;29;20404;-87
2023/08/30 03:00:42;;;;;;;25.80;9.02;;;;;;;;;;10165583;29;20119;-87
2023/08/30 03:05:43;;;;;;;31.23;10.20;;;;;;;;;;10185160;29;20459;-87
2023/08/30 03:10:44;;;;;;;34.47;11.02;;;;;;;;;;10186832;29;20107;-88
2023/08/30 03:15:45;;;;;;;29.35;10.18;;;;;;;;;;10175186;29;20157;-88
2023/08/30 03:20:46;;;;;;;33.05;11.15;;;;;;;;;;10201262;29;20038;-89
2023/08/30 03:25:47;;;;;;;33.80;12.48;;;;;;;;;;10182357;29;20047;-89
2023/08/30 03:30:48;;;;;;;34.05;11.82;;;;;;;;;;10186604;29;20028;-87
2023/08/30 03:35:49;;;;;;;56.70;15.88;;;;;;;;;;10163679;29;20489;-89
2023/08/30 03:40:53;;;;;;;90.60;19.88;;;;;;;;;;10190436;29;20036;-88
2023/08/30 03:45:54;;;;;;;96.97;20.63;;;;;;;;;;10193402;29;20079;-88
2023/08/30 03:50:56;;;;;;;113.10;22.85;;;;;;;;;;10199415;29;20040;-88
2023/08/30 03:55:57;;;;;;;106.65;22.98;;;;;;;;;;10185328;29;20056;-87
2023/08/30 04:00:58;;;;;;;109.22;23.90;;;;;;;;;;10184807;29;20255;-88
2023/08/30 04:05:59;;;;;;;115.82;23.58;;;;;;;;;;10181237;29;20119;-89
2023/08/30 04:11:13;;;;;;;106.90;23.33;;;;;;;;;;10175280;29;20031;-88
2023/08/30 04:16:17;;;;;;;120.97;24.15;;;;;;;;;;10169595;29;20036;-89
2023/08/30 04:21:18;;;;;;;126.80;25.00;;;;;;;;;;10156026;29;20040;-85
2023/08/30 04:26:19;;;;;;;121.93;25.85;;;;;;;;;;10180915;29;20040;-86
2023/08/30 04:31:20;;;;;;;115.38;25.70;;;;;;;;;;10171698;29;20051;-86
2023/08/30 04:36:21;;;;;;;100.68;24.15;;;;;;;;;;10187316;29;20059;-88
2023/08/30 04:41:22;;;;;;;90.13;22.20;;;;;;;;;;10191389;29;20046;-89
2023/08/30 04:46:23;;;;;;;99.95;24.75;;;;;;;;;;10161967;29;20044;-89
2023/08/30 04:51:24;;;;;;;86.90;24.02;;;;;;;;;;10193022;29;20039;-91
2023/08/30 04:56:25;;;;;;;92.32;26.15;;;;;;;;;;10200258;29;20471;-91
2023/08/30 05:01:26;;;;;;;90.40;25.60;;;;;;;;;;10176305;29;20059;-91
2023/08/30 05:06:43;;;;;;;137.00;28.75;;;;;;;;;;10174333;29;20167;-90
2023/08/30 05:11:45;;;;;;;94.10;23.40;;;;;;;;;;10180456;29;20519;-92
2023/08/30 05:16:46;;;;;;;81.40;22.27;;;;;;;;;;10163216;29;20047;-90
2023/08/30 05:21:51;;;;;;;138.73;28.45;;;;;;;;;;10184883;29;20063;-89
2023/08/30 05:26:52;;;;;;;104.47;25.23;;;;;;;;;;10166809;29;20035;-91
2023/08/30 05:31:53;;;;;;;124.05;25.20;;;;;;;;;;10186775;29;20042;-87
2023/08/30 05:36:54;;;;;;;104.25;24.90;;;;;;;;;;10200636;29;20044;-89
2023/08/30 05:41:55;;;;;;;126.78;25.13;;;;;;;;;;10173368;29;20500;-88
2023/08/30 05:46:56;;;;;;;83.22;24.90;;;;;;;;;;10162281;29;20024;-89
2023/08/30 05:51:57;;;;;;;112.30;26.25;;;;;;;;;;10179945;29;20086;-89
2023/08/30 05:56:58;;;;;;;79.07;21.52;;;;;;;;;;10181160;29;20631;-89
2023/08/30 06:01:59;;;;;;;66.15;19.95;;;;;;;;;;10175439;29;20032;-90
2023/08/30 06:07:00;;;;;;;51.28;16.33;;;;;;;;;;10171974;29;20036;-91
2023/08/30 06:12:01;;;;;;;62.17;16.52;;;;;;;;;;10184358;29;20044;-92
2023/08/30 06:17:02;;;;;;;51.88;15.25;;;;;;;;;;10191713;29;20079;-90
2023/08/30 06:22:04;;;;;;;51.88;17.00;;;;;;;;;;10178739;29;20563;-90
2023/08/30 06:27:05;;;;;;;59.00;18.48;;;;;;;;;;10196433;29;20024;-87
2023/08/30 06:32:06;;;;;;;37.53;12.70;;;;;;;;;;10161455;29;20505;-92
2023/08/30 06:37:07;;;;;;;42.15;14.13;;;;;;;;;;10188320;29;20725;-88
2023/08/30 06:42:08;;;;;;;82.68;23.60;;;;;;;;;;10196717;29;20043;-87
2023/08/30 06:47:09;;;;;;;75.90;21.25;;;;;;;;;;10182147;29;20040;-89
2023/08/30 06:52:10;;;;;;;95.50;24.50;;;;;;;;;;10183415;29;20035;-87
2023/08/30 06:57:11;;;;;;;86.82;24.23;;;;;;;;;;10227662;29;20102;-86
2023/08/30 07:02:13;;;;;;;96.90;25.55;;;;;;;;;;10234621;29;20027;-87
2023/08/30 07:07:14;;;;;;;108.53;25.08;;;;;;;;;;10246843;29;20114;-88
2023/08/30 07:12:15;;;;;;;86.57;22.52;;;;;;;;;;10238269;29;20043;-86
2023/08/30 07:17:16;;;;;;;87.43;22.42;;;;;;;;;;10245503;29;20385;-89
2023/08/30 07:22:20;;;;;;;81.47;20.80;;;;;;;;;;10238146;29;20075;-90
2023/08/30 07:27:22;;;;;;;64.93;19.92;;;;;;;;;;10228374;29;20035;-88
2023/08/30 07:32:23;;;;;;;68.22;20.13;;;;;;;;;;10240734;29;20499;-89
2023/08/30 07:37:24;;;;;;;75.80;20.90;;;;;;;;;;10228837;29;20070;-88
2023/08/30 07:42:25;;;;;;;73.75;20.05;;;;;;;;;;10234314;29;20054;-88
2023/08/30 07:47:26;;;;;;;63.53;18.98;;;;;;;;;;10249690;29;20694;-90
2023/08/30 07:52:27;;;;;;;52.38;15.98;;;;;;;;;;10230279;28;20031;-91
2023/08/30 07:57:28;;;;;;;37.38;14.80;;;;;;;;;;10218520;29;20538;-89
2023/08/30 08:02:29;;;;;;;41.42;14.05;;;;;;;;;;10236544;29;20035;-88
2023/08/30 08:07:30;;;;;;;29.08;10.70;;;;;;;;;;10238261;29;20221;-93
2023/08/30 08:12:33;;;;;;;31.65;10.52;;;;;;;;;;10220057;29;20082;-90
2023/08/30 08:17:34;;;;;;;23.25;7.78;;;;;;;;;;10223135;29;20483;-90
2023/08/30 08:22:35;;;;;;;20.50;7.47;;;;;;;;;;10228002;29;20026;-89
2023/08/30 08:27:37;;;;;;;24.15;8.85;;;;;;;;;;10219305;29;20039;-89
2023/08/30 08:32:38;;;;;;;17.73;8.35;;;;;;;;;;10238948;29;20019;-88
2023/08/30 08:37:39;;;;;;;21.48;8.77;;;;;;;;;;10221459;29;20086;-88
2023/08/30 08:42:40;;;;;;;8.15;3.88;;;;;;;;;;10223192;29;20036;-89
2023/08/30 08:47:41;;;;;;;3.78;2.35;;;;;;;;;;10226399;29;20685;-89
2023/08/30 08:52:42;;;;;;;3.65;2.30;;;;;;;;;;10216130;29;20086;-89
2023/08/30 08:57:54;;;;;;;2.10;1.67;;;;;;;;;;10217290;28;20764;-92
2023/08/30 09:02:55;;;;;;;2.03;1.52;;;;;;;;;;10218820;28;20340;-88
2023/08/30 09:07:56;;;;;;;1.48;0.98;;;;;;;;;;10235054;29;20070;-89
2023/08/30 09:12:57;;;;;;;4.82;1.42;;;;;;;;;;10239954;28;20039;-88
2023/08/30 09:17:59;;;;;;;2.13;1.35;;;;;;;;;;10223880;29;20575;-89
2023/08/30 09:23:00;;;;;;;4.80;2.65;;;;;;;;;;10240693;28;20046;-88
2023/08/30 09:28:01;;;;;;;0.90;0.90;;;;;;;;;;10228138;29;20069;-89
2023/08/30 09:33:02;;;;;;;3.00;0.90;;;;;;;;;;10231253;29;20027;-89
2023/08/30 09:38:04;;;;;;;1.27;1.00;;;;;;;;;;10237772;29;20051;-89
2023/08/30 09:43:05;;;;;;;1.83;1.25;;;;;;;;;;10224679;29;20040;-90
2023/08/30 09:48:06;;;;;;;0.93;0.82;;;;;;;;;;10215533;29;20174;-91
2023/08/30 09:53:09;;;;;;;1.45;0.95;;;;;;;;;;10217316;29;20038;-89
2023/08/30 09:58:10;;;;;;;0.80;0.80;;;;;;;;;;10176563;29;20597;-89
2023/08/30 10:03:12;;;;;;;1.40;1.15;;;;;;;;;;10167443;29;20142;-89
2023/08/30 10:08:14;;;;;;;1.83;1.10;;;;;;;;;;10185500;29;20182;-88
2023/08/30 10:13:16;;;;;;;1.55;1.23;;;;;;;;;;10175617;29;20170;-86
2023/08/30 10:18:20;;;;;;;1.30;0.90;;;;;;;;;;10194499;29;20428;-90
2023/08/30 10:23:22;;;;;;;4.45;2.75;;;;;;;;;;10184472;29;20031;-88
2023/08/30 10:28:24;;;;;;;7.88;3.72;;;;;;;;;;10174219;29;20055;-88
2023/08/30 10:33:25;;;;;;;9.70;4.72;;;;;;;;;;10179829;29;20115;-89
2023/08/30 10:38:30;;;;;;;9.68;5.95;;;;;;;;;;10168363;29;20044;-87
2023/08/30 10:43:34;;;;;;;9.25;6.53;;;;;;;;;;10180285;29;20040;-90
2023/08/30 10:48:45;;;;;;;8.55;6.07;;;;;;;;;;10173615;29;20070;-91
2023/08/30 10:53:57;;;;;;;8.02;4.78;;;;;;;;;;10171921;29;20066;-90
2023/08/30 10:58:58;;;;;;;11.65;5.60;;;;;;;;;;10163988;29;20044;-87
2023/08/30 11:03:59;;;;;;;9.75;5.10;;;;;;;;;;10176775;29;20047;-88
2023/08/30 11:09:01;;;;;;;9.45;6.63;;;;;;;;;;10190412;29;20050;-91
2023/08/30 11:14:07;;;;;;;9.88;7.00;;;;;;;;;;10155646;29;20048;-90
2023/08/30 11:19:09;;;;;;;9.55;6.57;;;;;;;;;;10171928;29;20043;-88
2023/08/30 11:24:11;;;;;;;7.65;5.47;;;;;;;;;;10154870;29;20042;-91
2023/08/30 11:29:12;;;;;;;13.98;6.05;;;;;;;;;;10185361;29;20373;-90
2023/08/30 11:34:13;;;;;;;5.30;2.90;;;;;;;;;;10185066;29;20491;-90
2023/08/30 11:39:14;;;;;;;2.50;2.00;;;;;;;;;;10177872;29;20051;-90
2023/08/30 11:44:18;;;;;;;1.50;1.40;;;;;;;;;;10198051;29;20032;-91
2023/08/30 11:49:19;;;;;;;1.90;1.55;;;;;;;;;;10191804;29;20044;-91
2023/08/30 11:54:21;;;;;;;3.65;2.83;;;;;;;;;;10179363;29;20043;-89
2023/08/30 11:59:22;;;;;;;6.57;3.83;;;;;;;;;;10194148;29;20904;-90
2023/08/30 12:04:23;;;;;;;11.48;6.63;;;;;;;;;;10171363;29;20035;-87
2023/08/30 12:09:30;;;;;;;5.47;3.78;;;;;;;;;;10190053;29;20472;-88
2023/08/30 12:14:35;;;;;;;5.35;3.25;;;;;;;;;;10193236;29;20051;-89
2023/08/30 12:19:36;;;;;;;3.78;3.28;;;;;;;;;;10174857;29;20063;-88
2023/08/30 12:24:41;;;;;;;4.40;3.33;;;;;;;;;;10195389;29;20079;-89
2023/08/30 12:29:42;;;;;;;3.90;3.08;;;;;;;;;;10180201;29;20035;-88
2023/08/30 12:34:43;;;;;;;4.15;3.00;;;;;;;;;;10178031;29;20765;-88
2023/08/30 12:39:44;;;;;;;3.35;2.50;;;;;;;;;;10194386;29;20039;-88
2023/08/30 12:44:46;;;;;;;2.72;1.75;;;;;;;;;;10183505;29;20030;-88
2023/08/30 12:49:47;;;;;;;3.00;1.50;;;;;;;;;;10179534;29;20508;-88
2023/08/30 12:54:48;;;;;;;1.98;1.70;;;;;;;;;;10189655;29;20047;-86
2023/08/30 12:59:49;;;;;;;2.45;1.80;;;;;;;;;;10187338;29;20032;-87
2023/08/30 13:04:50;;;;;;;2.28;2.08;;;;;;;;;;10184342;29;20720;-86
2023/08/30 13:09:51;;;;;;;7.93;4.93;;;;;;;;;;10171997;29;20051;-87
2023/08/30 13:14:52;;;;;;;6.75;4.55;;;;;;;;;;10166734;29;20099;-88
2023/08/30 13:19:53;;;;;;;6.20;4.25;;;;;;;;;;10177109;29;20036;-88
2023/08/30 13:24:54;;;;;;;7.22;4.80;;;;;;;;;;10184909;29;20147;-90
2023/08/30 13:29:55;;;;;;;12.20;7.90;;;;;;;;;;10161081;29;20036;-87
2023/08/30 13:34:56;;;;;;;11.52;7.95;;;;;;;;;;10174655;29;20531;-92
2023/08/30 13:39:57;;;;;;;13.30;7.82;;;;;;;;;;10165481;29;20052;-88
2023/08/30 13:44:58;;;;;;;12.02;6.60;;;;;;;;;;10189266;29;20020;-88
2023/08/30 13:49:59;;;;;;;10.20;7.20;;;;;;;;;;10153710;29;20062;-91
2023/08/30 13:55:00;;;;;;;9.23;5.90;;;;;;;;;;10174488;29;20078;-87
2023/08/30 14:00:06;;;;;;;8.30;4.85;;;;;;;;;;10186092;29;20024;-89
2023/08/30 14:05:07;;;;;;;;;;;;;;;;;;10188774;29;20038;-88
2023/08/30 14:10:08;;;;;;;6.10;4.20;;;;;;;;;;10170510;29;19918;-89
2023/08/30 14:15:09;;;;;;;4.00;3.53;;;;;;;;;;10187078;29;20423;-87
2023/08/30 14:20:10;;;;;;;2.90;2.20;;;;;;;;;;10199092;29;20032;-87
2023/08/30 14:25:12;;;;;;;3.10;2.10;;;;;;;;;;10180893;29;20369;-91
2023/08/30 14:30:14;;;;;;;2.53;2.20;;;;;;;;;;10191237;29;20054;-88
2023/08/30 14:35:15;;;;;;;3.75;2.85;;;;;;;;;;10193269;29;20035;-89
2023/08/30 14:40:16;;;;;;;3.00;2.70;;;;;;;;;;10176929;29;20032;-90
2023/08/30 14:45:17;;;;;;;5.70;3.42;;;;;;;;;;10159814;29;20493;-91
2023/08/30 14:50:18;;;;;;;6.82;4.28;;;;;;;;;;10170209;29;20078;-88
2023/08/30 14:55:19;;;;;;;6.43;4.50;;;;;;;;;;10158178;29;20479;-90
2023/08/30 15:00:20;;;;;;;5.65;4.13;;;;;;;;;;10196859;29;20036;-94
2023/08/30 15:05:21;;;;;;;4.65;3.53;;;;;;;;;;10196986;29;20040;-90
2023/08/30 15:10:22;;;;;;;4.43;3.08;;;;;;;;;;10177558;29;20571;-91
2023/08/30 15:15:23;;;;;;;4.88;2.83;;;;;;;;;;10197713;29;20079;-89
2023/08/30 15:20:24;;;;;;;4.03;2.95;;;;;;;;;;10191972;29;20071;-90
2023/08/30 15:25:26;;;;;;;3.38;2.83;;;;;;;;;;10176963;29;20040;-90
2023/08/30 15:30:27;;;;;;;4.85;3.10;;;;;;;;;;10188224;29;20043;-89
2023/08/30 15:35:29;;;;;;;5.63;4.10;;;;;;;;;;10202493;29;20048;-88
2023/08/30 15:40:31;;;;;;;5.13;3.45;;;;;;;;;;10184077;29;20052;-89
2023/08/30 15:45:32;;;;;;;6.38;4.18;;;;;;;;;;10164600;29;20122;-91
2023/08/30 15:50:33;;;;;;;6.53;4.22;;;;;;;;;;10179826;29;20070;-90
2023/08/30 15:55:34;;;;;;;5.13;3.75;;;;;;;;;;10177479;29;20146;-89
2023/08/30 16:00:40;;;;;;;20.50;13.32;;;;;;;;;;10178273;29;20032;-91
2023/08/30 16:05:44;;;;;;;4.38;3.00;;;;;;;;;;10175157;29;20031;-91
2023/08/30 16:10:53;;;;;;;3.03;2.70;;;;;;;;;;10175557;29;20020;-91
2023/08/30 16:15:54;;;;;;;4.80;3.60;;;;;;;;;;10199599;29;20044;-89
2023/08/30 16:20:55;;;;;;;4.90;3.28;;;;;;;;;;10173496;29;20043;-92
2023/08/30 16:25:59;;;;;;;6.35;3.95;;;;;;;;;;10178526;29;20551;-89
2023/08/30 16:31:04;;;;;;;6.60;4.95;;;;;;;;;;10187000;29;20070;-90
2023/08/30 16:41:28;;;;;;;6.75;5.72;;;;;;;;;;10182032;29;20040;-89
2023/08/30 16:46:31;;;;;;;9.30;6.63;;;;;;;;;;10195937;29;20052;-89
2023/08/30 16:51:32;;;;;;;8.60;6.15;;;;;;;;;;10187466;29;20059;-91
2023/08/30 16:56:33;;;;;;;9.38;6.90;;;;;;;;;;10199429;29;20083;-90
2023/08/30 17:01:34;;;;;;;10.27;7.03;;;;;;;;;;10230236;29;20036;-91
2023/08/30 17:06:35;;;;;;;12.80;9.00;;;;;;;;;;10231713;29;20090;-89
2023/08/30 17:11:38;;;;;;;13.57;8.93;;;;;;;;;;10220122;29;20089;-93
2023/08/30 17:16:39;;;;;;;13.70;9.82;;;;;;;;;;10238301;29;20067;-91
2023/08/30 17:21:40;;;;;;;14.20;8.95;;;;;;;;;;10228401;28;20043;-90
2023/08/30 17:26:44;;;;;;;16.55;11.32;;;;;;;;;;10222021;29;20103;-91
2023/08/30 17:31:45;;;;;;;14.75;10.80;;;;;;;;;;10229583;29;20063;-92
2023/08/30 17:37:07;;;;;;;16.77;10.95;;;;;;;;;;10222731;29;20506;-91
2023/08/30 17:42:08;;;;;;;17.58;11.23;;;;;;;;;;10227770;29;20031;-92
2023/08/30 17:47:09;;;;;;;18.33;10.77;;;;;;;;;;10220796;29;20408;-89
2023/08/30 17:52:10;;;;;;;14.90;9.48;;;;;;;;;;10219773;29;20043;-89
2023/08/30 17:57:11;;;;;;;15.27;9.50;;;;;;;;;;10192104;29;20348;-89
2023/08/30 18:02:12;;;;;;;16.45;8.77;;;;;;;;;;10176521;29;20027;-90
2023/08/30 18:07:13;;;;;;;15.82;10.73;;;;;;;;;;10165639;29;20028;-88
2023/08/30 18:12:14;;;;;;;17.55;11.13;;;;;;;;;;10193896;29;20118;-89
2023/08/30 18:17:17;;;;;;;15.95;9.73;;;;;;;;;;10168212;29;20050;-89
2023/08/30 18:22:35;;;;;;;14.48;9.10;;;;;;;;;;10189699;29;20067;-90
2023/08/30 18:27:36;;;;;;;15.20;8.75;;;;;;;;;;10191999;29;20055;-88
2023/08/30 18:32:37;;;;;;;14.45;7.85;;;;;;;;;;10163831;29;20320;-88
2023/08/30 18:37:38;;;;;;;13.40;7.38;;;;;;;;;;10168162;29;20047;-87
2023/08/30 18:42:39;;;;;;;11.40;6.88;;;;;;;;;;10180011;29;20492;-91
2023/08/30 18:47:40;;;;;;;9.70;5.88;;;;;;;;;;10191017;29;20028;-92
2023/08/30 18:52:41;;;;;;;8.63;6.10;;;;;;;;;;10201246;29;20044;-92
2023/08/30 18:57:43;;;;;;;7.25;5.55;;;;;;;;;;10204825;29;20124;-88
2023/08/30 19:02:44;;;;;;;8.50;5.53;;;;;;;;;;10166691;29;20020;-87
2023/08/30 19:07:45;;;;;;;8.25;5.28;;;;;;;;;;10181812;29;20024;-92
2023/08/30 19:12:49;;;;;;;7.68;5.20;;;;;;;;;;10186861;29;20674;-94
2023/08/30 19:17:50;;;;;;;10.85;6.13;;;;;;;;;;10186587;29;20055;-89
2023/08/30 19:23:12;;;;;;;9.02;6.28;;;;;;;;;;10174240;29;20028;-90
2023/08/30 19:28:13;;;;;;;11.90;7.07;;;;;;;;;;10167760;29;20039;-91
2023/08/30 19:33:14;;;;;;;9.10;7.18;;;;;;;;;;10184779;29;20038;-90
2023/08/30 19:38:15;;;;;;;9.95;7.40;;;;;;;;;;10196712;29;20158;-90
2023/08/30 19:43:17;;;;;;;12.15;7.97;;;;;;;;;;10193581;29;20040;-90
2023/08/30 19:48:20;;;;;;;10.07;7.07;;;;;;;;;;10159056;29;20056;-92
2023/08/30 19:53:22;;;;;;;10.45;7.05;;;;;;;;;;10176504;29;20035;-91
2023/08/30 19:58:23;;;;;;;10.52;7.75;;;;;;;;;;10174389;29;20054;-91
2023/08/30 20:03:24;;;;;;;10.30;7.72;;;;;;;;;;10161359;29;20039;-92
2023/08/30 20:08:25;;;;;;;11.10;7.53;;;;;;;;;;10182656;29;20027;-92
2023/08/30 20:13:26;;;;;;;17.48;9.05;;;;;;;;;;10204822;29;20547;-91
2023/08/30 20:18:27;;;;;;;13.15;9.07;;;;;;;;;;10179878;29;20091;-90
2023/08/30 20:23:28;;;;;;;10.50;7.90;;;;;;;;;;10170280;29;20040;-89
2023/08/30 20:28:29;;;;;;;11.80;7.82;;;;;;;;;;10151637;29;20512;-90
2023/08/30 20:33:30;;;;;;;12.75;8.05;;;;;;;;;;10176590;29;20385;-90
2023/08/30 20:38:32;;;;;;;13.05;8.05;;;;;;;;;;10169462;29;20051;-91
2023/08/30 20:43:33;;;;;;;21.63;9.20;;;;;;;;;;10174244;29;20031;-90
2023/08/30 20:48:34;;;;;;;16.33;9.70;;;;;;;;;;10167608;29;20063;-90
2023/08/30 20:53:36;;;;;;;15.85;9.90;;;;;;;;;;10189918;29;20042;-90
2023/08/30 20:58:41;;;;;;;18.98;11.20;;;;;;;;;;10184784;29;20044;-91
2023/08/30 21:03:42;;;;;;;18.63;10.90;;;;;;;;;;10187513;29;20050;-91
2023/08/30 21:08:43;;;;;;;15.40;9.48;;;;;;;;;;10176699;29;20032;-91
2023/08/30 21:13:44;;;;;;;15.30;9.95;;;;;;;;;;10199855;29;20039;-91
2023/08/30 21:18:45;;;;;;;21.90;12.07;;;;;;;;;;10169492;29;20040;-91
2023/08/30 21:23:49;;;;;;;20.80;11.25;;;;;;;;;;10173782;29;20051;-94
2023/08/30 21:28:52;;;;;;;16.42;9.57;;;;;;;;;;10185290;29;20028;-94
2023/08/30 21:33:54;;;;;;;18.85;9.93;;;;;;;;;;10186003;29;20317;-90
2023/08/30 21:38:55;;;;;;;19.55;10.88;;;;;;;;;;10191620;29;20040;-91
2023/08/30 21:43:59;;;;;;;15.50;9.95;;;;;;;;;;10180817;29;20080;-91
2023/08/30 21:49:01;;;;;;;18.50;10.70;;;;;;;;;;10182782;29;20035;-91
2023/08/30 21:54:04;;;;;;;19.05;10.90;;;;;;;;;;10185673;29;20047;-91
2023/08/30 21:59:06;;;;;;;16.27;10.60;;;;;;;;;;10178710;29;20051;-92
2023/08/30 22:04:07;;;;;;;15.25;10.15;;;;;;;;;;10171896;29;20046;-88
2023/08/30 22:09:09;;;;;;;18.40;9.68;;;;;;;;;;10158576;29;20032;-89
2023/08/30 22:14:10;;;;;;;15.43;9.15;;;;;;;;;;10178870;29;20043;-88
2023/08/30 22:19:11;;;;;;;16.02;10.18;;;;;;;;;;10190331;29;20036;-89
2023/08/30 22:24:13;;;;;;;15.98;8.95;;;;;;;;;;10193614;29;20568;-91
2023/08/30 22:29:15;;;;;;;17.92;9.73;;;;;;;;;;10174730;29;20036;-87
2023/08/30 22:34:16;;;;;;;18.67;9.90;;;;;;;;;;10171711;29;20038;-87
2023/08/30 22:39:17;;;;;;;17.50;9.05;;;;;;;;;;10173366;29;20036;-88
2023/08/30 22:44:18;;;;;;;22.58;10.98;;;;;;;;;;10179920;29;20119;-90
2023/08/30 22:49:19;;;;;;;23.33;10.77;;;;;;;;;;10171589;29;20131;-90
2023/08/30 22:54:21;;;;;;;18.63;11.05;;;;;;;;;;10162450;29;20055;-90
2023/08/30 22:59:22;;;;;;;19.33;9.77;;;;;;;;;;10178775;29;20032;-92
2023/08/30 23:04:23;;;;;;;20.60;10.65;;;;;;;;;;10174436;29;20526;-89
2023/08/30 23:09:25;;;;;;;19.42;11.10;;;;;;;;;;10164121;29;20042;-88
2023/08/30 23:14:26;;;;;;;25.05;13.40;;;;;;;;;;10170702;29;20035;-90
2023/08/30 23:19:29;;;;;;;25.05;14.98;;;;;;;;;;10182085;29;20032;-89
2023/08/30 23:24:31;;;;;;;25.90;14.52;;;;;;;;;;10161242;29;20150;-88
2023/08/30 23:29:32;;;;;;;28.00;14.68;;;;;;;;;;10165484;29;20503;-90
2023/08/30 23:34:33;;;;;;;28.13;15.80;;;;;;;;;;10172349;29;20086;-90
2023/08/30 23:39:43;;;;;;;29.40;16.48;;;;;;;;;;10188570;29;20266;-90
2023/08/30 23:44:44;;;;;;;29.83;18.42;;;;;;;;;;10196168;29;20024;-88
2023/08/30 23:49:46;;;;;;;33.22;18.65;;;;;;;;;;10182004;29;20039;-88
2023/08/30 23:54:47;;;;;;;29.48;18.00;;;;;;;;;;10162082;29;20471;-91
2023/08/30 23:59:48;;;;;;;34.80;18.90;;;;;;;;;;10200058;29;20028;-89
